createdAt,value
2017-09-24T00:00:28.203Z,970.5
2017-09-24T00:01:28.099Z,970.49
2017-09-24T00:02:28.094Z,970.43
2017-09-24T00:03:28.089Z,970.45
2017-09-24T00:04:28.083Z,970.48
2017-09-24T00:05:28.228Z,970.46
2017-09-24T00:06:28.073Z,970.44
2017-09-24T00:07:28.067Z,970.44
2017-09-24T00:08:28.061Z,970.42
2017-09-24T00:09:28.057Z,970.43
2017-09-24T00:10:28.052Z,970.42
2017-09-24T00:11:28.046Z,970.41
2017-09-24T00:12:28.041Z,970.44
2017-09-24T00:13:28.060Z,970.39
2017-09-24T00:14:28.032Z,970.39
2017-09-24T00:15:28.025Z,970.37
2017-09-24T00:16:28.020Z,970.41
2017-09-24T00:17:28.017Z,970.41
2017-09-24T00:18:28.009Z,970.37
2017-09-24T00:19:28.003Z,970.36
2017-09-24T00:20:28.000Z,970.36
2017-09-24T00:21:27.994Z,970.33
2017-09-24T00:22:27.988Z,970.32
2017-09-24T00:23:27.984Z,970.35
2017-09-24T00:24:27.977Z,970.31
2017-09-24T00:25:27.973Z,970.31
2017-09-24T00:26:27.968Z,970.31
2017-09-24T00:27:27.966Z,970.33
2017-09-24T00:28:27.958Z,970.28
2017-09-24T00:29:27.951Z,970.28
2017-09-24T00:30:27.947Z,970.28
2017-09-24T00:31:27.942Z,970.3
2017-09-24T00:32:27.937Z,970.27
2017-09-24T00:33:27.930Z,970.29
2017-09-24T00:34:27.926Z,970.29
2017-09-24T00:35:27.921Z,970.33
2017-09-24T00:36:27.915Z,970.31
2017-09-24T00:37:28.010Z,970.32
2017-09-24T00:38:27.905Z,970.3
2017-09-24T00:39:27.899Z,970.32
2017-09-24T00:40:27.894Z,970.29
2017-09-24T00:41:27.888Z,970.33
2017-09-24T00:42:27.883Z,970.31
2017-09-24T00:43:27.879Z,970.26
2017-09-24T00:44:27.872Z,970.28
2017-09-24T00:45:27.867Z,970.27
2017-09-24T00:46:27.862Z,970.28
2017-09-24T00:47:28.008Z,970.26
2017-09-24T00:48:27.850Z,970.25
2017-09-24T00:49:27.846Z,970.24
2017-09-24T00:50:27.842Z,970.28
2017-09-24T00:51:27.835Z,970.24
2017-09-24T00:52:27.830Z,970.26
2017-09-24T00:53:27.824Z,970.25
2017-09-24T00:54:27.819Z,970.24
2017-09-24T00:55:27.815Z,970.22
2017-09-24T00:56:27.811Z,970.22
2017-09-24T00:57:27.840Z,970.18
2017-09-24T00:58:27.798Z,970.18
2017-09-24T00:59:27.793Z,970.17
2017-09-24T01:00:27.788Z,970.18
2017-09-24T01:01:27.784Z,970.16
2017-09-24T01:02:27.778Z,970.17
2017-09-24T01:03:27.772Z,970.17
2017-09-24T01:04:27.867Z,970.15
2017-09-24T01:05:27.763Z,970.13
2017-09-24T01:06:27.758Z,970.16
2017-09-24T01:07:27.752Z,970.14
2017-09-24T01:08:27.747Z,970.14
2017-09-24T01:09:27.742Z,970.12
2017-09-24T01:10:27.736Z,970.17
2017-09-24T01:11:27.730Z,970.17
2017-09-24T01:12:27.726Z,970.18
2017-09-24T01:13:27.820Z,970.17
2017-09-24T01:14:27.715Z,970.18
2017-09-24T01:15:27.709Z,970.21
2017-09-24T01:16:27.706Z,970.25
2017-09-24T01:17:27.699Z,970.19
2017-09-24T01:18:27.693Z,970.23
2017-09-24T01:19:27.687Z,970.24
2017-09-24T01:20:27.682Z,970.24
2017-09-24T01:21:27.778Z,970.31
2017-09-24T01:22:27.672Z,970.28
2017-09-24T01:23:27.667Z,970.29
2017-09-24T01:24:27.762Z,970.28
2017-09-24T01:25:27.656Z,970.28
2017-09-24T01:26:27.651Z,970.3
2017-09-24T01:27:27.646Z,970.32
2017-09-24T01:28:27.640Z,970.31
2017-09-24T01:29:27.635Z,970.3
2017-09-24T01:30:27.629Z,970.32
2017-09-24T01:31:27.624Z,970.33
2017-09-24T01:32:27.618Z,970.34
2017-09-24T01:33:27.612Z,970.35
2017-09-24T01:34:27.608Z,970.28
2017-09-24T01:35:27.603Z,970.31
2017-09-24T01:36:27.597Z,970.33
2017-09-24T01:37:27.692Z,970.32
2017-09-24T01:38:27.586Z,970.38
2017-09-24T01:39:27.581Z,970.36
2017-09-24T01:40:27.576Z,970.35
2017-09-24T01:41:27.571Z,970.37
2017-09-24T01:42:27.565Z,970.37
2017-09-24T01:43:27.559Z,970.36
2017-09-24T01:44:27.555Z,970.36
2017-09-24T01:45:27.550Z,970.29
2017-09-24T01:46:27.542Z,970.28
2017-09-24T01:47:27.545Z,970.31
2017-09-24T01:48:27.533Z,970.27
2017-09-24T01:49:27.528Z,970.28
2017-09-24T01:50:27.522Z,970.3
2017-09-24T01:51:27.517Z,970.3
2017-09-24T01:52:27.512Z,970.28
2017-09-24T01:53:27.506Z,970.29
2017-09-24T01:54:27.501Z,970.32
2017-09-24T01:55:27.495Z,970.27
2017-09-24T01:56:27.590Z,970.3
2017-09-24T01:57:27.485Z,970.27
2017-09-24T01:58:27.479Z,970.23
2017-09-24T01:59:27.474Z,970.26
2017-09-24T02:00:27.469Z,970.24
2017-09-24T02:01:27.465Z,970.24
2017-09-24T02:02:27.458Z,970.21
2017-09-24T02:03:27.453Z,970.2
2017-09-24T02:04:27.446Z,970.19
2017-09-24T02:05:27.442Z,970.19
2017-09-24T02:06:27.437Z,970.2
2017-09-24T02:07:27.431Z,970.19
2017-09-24T02:08:27.425Z,970.17
2017-09-24T02:09:27.420Z,970.21
2017-09-24T02:10:27.564Z,970.17
2017-09-24T02:11:27.411Z,970.17
2017-09-24T02:12:27.404Z,970.23
2017-09-24T02:13:27.399Z,970.28
2017-09-24T02:14:27.394Z,970.25
2017-09-24T02:15:27.387Z,970.27
2017-09-24T02:16:27.383Z,970.27
2017-09-24T02:17:27.378Z,970.22
2017-09-24T02:18:27.372Z,970.25
2017-09-24T02:19:27.365Z,970.26
2017-09-24T02:20:27.360Z,970.23
2017-09-24T02:21:27.355Z,970.24
2017-09-24T02:22:27.349Z,970.25
2017-09-24T02:23:27.344Z,970.23
2017-09-24T02:24:27.338Z,970.23
2017-09-24T02:25:27.334Z,970.25
2017-09-24T02:26:27.328Z,970.25
2017-09-24T02:27:27.323Z,970.26
2017-09-24T02:28:27.317Z,970.24
2017-09-24T02:29:27.312Z,970.27
2017-09-24T02:30:27.315Z,970.22
2017-09-24T02:31:27.301Z,970.28
2017-09-24T02:32:27.296Z,970.27
2017-09-24T02:33:27.291Z,970.33
2017-09-24T02:34:27.385Z,970.33
2017-09-24T02:35:27.280Z,970.35
2017-09-24T02:36:27.276Z,970.36
2017-09-24T02:37:27.269Z,970.36
2017-09-24T02:38:27.263Z,970.3
2017-09-24T02:39:27.264Z,970.3
2017-09-24T02:40:27.354Z,970.31
2017-09-24T02:41:27.247Z,970.32
2017-09-24T02:42:27.242Z,970.3
2017-09-24T02:43:27.237Z,970.27
2017-09-24T02:44:27.232Z,970.29
2017-09-24T02:45:27.226Z,970.35
2017-09-24T02:46:27.220Z,970.35
2017-09-24T02:47:27.216Z,970.33
2017-09-24T02:48:27.210Z,970.32
2017-09-24T02:49:27.203Z,970.29
2017-09-24T02:50:27.301Z,970.3
2017-09-24T02:51:27.194Z,970.29
2017-09-24T02:52:27.189Z,970.3
2017-09-24T02:53:27.283Z,970.27
2017-09-24T02:54:27.176Z,970.24
2017-09-24T02:55:27.173Z,970.24
2017-09-24T02:56:27.166Z,970.27
2017-09-24T02:57:27.162Z,970.26
2017-09-24T02:58:27.254Z,970.25
2017-09-24T02:59:27.150Z,970.24
2017-09-24T03:00:27.143Z,970.27
2017-09-24T03:01:27.139Z,970.24
2017-09-24T03:02:27.133Z,970.24
2017-09-24T03:03:27.128Z,970.24
2017-09-24T03:04:27.122Z,970.22
2017-09-24T03:05:27.116Z,970.23
2017-09-24T03:06:27.110Z,970.22
2017-09-24T03:07:27.106Z,970.21
2017-09-24T03:08:27.201Z,970.22
2017-09-24T03:09:27.095Z,970.24
2017-09-24T03:10:27.190Z,970.23
2017-09-24T03:11:27.085Z,970.27
2017-09-24T03:12:27.079Z,970.24
2017-09-24T03:13:27.174Z,970.25
2017-09-24T03:14:27.067Z,970.24
2017-09-24T03:15:27.063Z,970.21
2017-09-24T03:16:27.058Z,970.17
2017-09-24T03:17:27.053Z,970.21
2017-09-24T03:18:27.045Z,970.22
2017-09-24T03:19:27.190Z,970.19
2017-09-24T03:20:27.034Z,970.23
2017-09-24T03:21:27.029Z,970.24
2017-09-24T03:22:27.022Z,970.22
2017-09-24T03:23:27.019Z,970.2
2017-09-24T03:24:27.014Z,970.19
2017-09-24T03:25:27.008Z,970.22
2017-09-24T03:26:27.151Z,970.21
2017-09-24T03:27:27.001Z,970.19
2017-09-24T03:28:26.990Z,970.21
2017-09-24T03:29:26.984Z,970.18
2017-09-24T03:30:26.981Z,970.16
2017-09-24T03:31:26.975Z,970.15
2017-09-24T03:32:26.968Z,970.16
2017-09-24T03:33:26.963Z,970.13
2017-09-24T03:34:26.958Z,970.16
2017-09-24T03:35:26.951Z,970.16
2017-09-24T03:36:26.946Z,970.17
2017-09-24T03:37:26.940Z,970.22
2017-09-24T03:38:27.036Z,970.24
2017-09-24T03:39:26.928Z,970.22
2017-09-24T03:40:26.924Z,970.24
2017-09-24T03:41:26.919Z,970.25
2017-09-24T03:42:27.014Z,970.27
2017-09-24T03:43:26.907Z,970.26
2017-09-24T03:44:26.908Z,970.32
2017-09-24T03:45:26.897Z,970.31
2017-09-24T03:46:27.042Z,970.3
2017-09-24T03:47:26.885Z,970.29
2017-09-24T03:48:26.880Z,970.3
2017-09-24T03:49:26.874Z,970.29
2017-09-24T03:50:26.868Z,970.27
2017-09-24T03:51:26.863Z,970.3
2017-09-24T03:52:26.857Z,970.26
2017-09-24T03:53:26.953Z,970.27
2017-09-24T03:54:26.849Z,970.28
2017-09-24T03:55:26.840Z,970.35
2017-09-24T03:56:26.836Z,970.36
2017-09-24T03:57:26.831Z,970.36
2017-09-24T03:58:26.824Z,970.35
2017-09-24T03:59:26.820Z,970.34
2017-09-24T04:00:26.812Z,970.34
2017-09-24T04:01:26.814Z,970.37
2017-09-24T04:02:26.802Z,970.4
2017-09-24T04:03:26.896Z,970.39
2017-09-24T04:04:26.792Z,970.36
2017-09-24T04:05:26.784Z,970.35
2017-09-24T04:06:26.780Z,970.35
2017-09-24T04:07:26.774Z,970.32
2017-09-24T04:08:26.770Z,970.33
2017-09-24T04:09:26.763Z,970.36
2017-09-24T04:10:26.760Z,970.36
2017-09-24T04:11:26.754Z,970.36
2017-09-24T04:12:26.747Z,970.39
2017-09-24T04:13:26.742Z,970.37
2017-09-24T04:14:26.737Z,970.36
2017-09-24T04:15:26.732Z,970.39
2017-09-24T04:16:26.725Z,970.42
2017-09-24T04:17:26.719Z,970.39
2017-09-24T04:18:26.714Z,970.36
2017-09-24T04:19:26.708Z,970.37
2017-09-24T04:20:26.704Z,970.38
2017-09-24T04:21:26.698Z,970.36
2017-09-24T04:22:26.692Z,970.38
2017-09-24T04:23:26.686Z,970.39
2017-09-24T04:24:26.680Z,970.4
2017-09-24T04:25:26.675Z,970.41
2017-09-24T04:26:26.770Z,970.42
2017-09-24T04:27:26.664Z,970.42
2017-09-24T04:28:26.659Z,970.44
2017-09-24T04:29:26.652Z,970.47
2017-09-24T04:30:26.647Z,970.45
2017-09-24T04:31:26.791Z,970.44
2017-09-24T04:32:26.637Z,970.45
2017-09-24T04:33:26.630Z,970.45
2017-09-24T04:34:26.625Z,970.41
2017-09-24T04:35:26.619Z,970.42
2017-09-24T04:36:26.613Z,970.44
2017-09-24T04:37:26.709Z,970.45
2017-09-24T04:38:26.602Z,970.47
2017-09-24T04:39:26.597Z,970.48
2017-09-24T04:40:26.591Z,970.49
2017-09-24T04:41:26.685Z,970.48
2017-09-24T04:42:26.579Z,970.48
2017-09-24T04:43:26.724Z,970.5
2017-09-24T04:44:26.570Z,970.49
2017-09-24T04:45:26.583Z,970.53
2017-09-24T04:46:26.557Z,970.51
2017-09-24T04:47:26.552Z,970.49
2017-09-24T04:48:26.545Z,970.49
2017-09-24T04:49:26.555Z,970.51
2017-09-24T04:50:26.535Z,970.55
2017-09-24T04:51:26.530Z,970.52
2017-09-24T04:52:26.524Z,970.56
2017-09-24T04:53:26.519Z,970.5
2017-09-24T04:54:26.513Z,970.47
2017-09-24T04:55:26.508Z,970.51
2017-09-24T04:56:26.500Z,970.48
2017-09-24T04:57:26.596Z,970.52
2017-09-24T04:58:26.490Z,970.5
2017-09-24T04:59:26.485Z,970.53
2017-09-24T05:00:26.479Z,970.53
2017-09-24T05:01:26.475Z,970.53
2017-09-24T05:02:26.468Z,970.56
2017-09-24T05:03:26.562Z,970.58
2017-09-24T05:04:26.458Z,970.54
2017-09-24T05:05:26.450Z,970.63
2017-09-24T05:06:26.445Z,970.62
2017-09-24T05:07:26.439Z,970.63
2017-09-24T05:08:26.433Z,970.57
2017-09-24T05:09:26.429Z,970.6
2017-09-24T05:10:26.523Z,970.61
2017-09-24T05:11:26.416Z,970.64
2017-09-24T05:12:26.561Z,970.64
2017-09-24T05:13:26.505Z,970.67
2017-09-24T05:14:26.398Z,970.68
2017-09-24T05:15:26.394Z,970.71
2017-09-24T05:16:26.389Z,970.71
2017-09-24T05:17:26.483Z,970.78
2017-09-24T05:18:26.375Z,970.76
2017-09-24T05:19:26.371Z,970.82
2017-09-24T05:20:26.365Z,970.83
2017-09-24T05:21:26.360Z,970.87
2017-09-24T05:22:26.354Z,970.86
2017-09-24T05:23:26.349Z,970.87
2017-09-24T05:24:26.443Z,970.85
2017-09-24T05:25:26.336Z,970.83
2017-09-24T05:26:26.332Z,970.83
2017-09-24T05:27:26.326Z,970.8
2017-09-24T05:28:26.320Z,970.84
2017-09-24T05:29:26.314Z,970.85
2017-09-24T05:30:26.309Z,970.88
2017-09-24T05:31:26.304Z,970.94
2017-09-24T05:32:26.398Z,970.93
2017-09-24T05:33:26.293Z,970.97
2017-09-24T05:34:26.287Z,970.98
2017-09-24T05:35:26.281Z,970.98
2017-09-24T05:36:26.275Z,970.97
2017-09-24T05:37:26.272Z,970.94
2017-09-24T05:38:26.264Z,970.95
2017-09-24T05:39:26.261Z,970.91
2017-09-24T05:40:26.252Z,970.86
2017-09-24T05:41:26.247Z,970.87
2017-09-24T05:42:26.241Z,970.89
2017-09-24T05:43:26.335Z,970.91
2017-09-24T05:44:26.230Z,970.86
2017-09-24T05:45:26.226Z,970.9
2017-09-24T05:46:26.221Z,970.93
2017-09-24T05:47:26.213Z,970.88
2017-09-24T05:48:26.308Z,970.92
2017-09-24T05:49:26.202Z,970.92
2017-09-24T05:50:26.197Z,970.99
2017-09-24T05:51:26.191Z,970.98
2017-09-24T05:52:26.184Z,971.02
2017-09-24T05:53:26.186Z,970.97
2017-09-24T05:54:26.174Z,971.01
2017-09-24T05:55:26.167Z,971.01
2017-09-24T05:56:26.162Z,970.99
2017-09-24T05:57:26.258Z,970.99
2017-09-24T05:58:26.151Z,971.03
2017-09-24T05:59:26.145Z,971
2017-09-24T06:00:26.239Z,971
2017-09-24T06:01:26.132Z,971.01
2017-09-24T06:02:26.126Z,971.04
2017-09-24T06:03:26.121Z,971.02
2017-09-24T06:04:26.115Z,971.06
2017-09-24T06:05:26.111Z,971.05
2017-09-24T06:06:26.104Z,971.07
2017-09-24T06:07:26.104Z,971.06
2017-09-24T06:08:26.193Z,971.08
2017-09-24T06:09:26.087Z,971.08
2017-09-24T06:10:26.082Z,971.08
2017-09-24T06:11:26.225Z,971.12
2017-09-24T06:12:26.070Z,971.08
2017-09-24T06:13:26.065Z,971.05
2017-09-24T06:14:26.058Z,971.04
2017-09-24T06:15:26.053Z,971.02
2017-09-24T06:16:26.046Z,971.02
2017-09-24T06:17:26.043Z,971.02
2017-09-24T06:18:26.037Z,971.03
2017-09-24T06:19:26.032Z,971.04
2017-09-24T06:20:26.025Z,971.05
2017-09-24T06:21:26.020Z,971.07
2017-09-24T06:22:26.013Z,971.11
2017-09-24T06:23:26.009Z,971.18
2017-09-24T06:24:26.003Z,971.24
2017-09-24T06:25:25.998Z,971.22
2017-09-24T06:26:25.993Z,971.28
2017-09-24T06:27:25.985Z,971.31
2017-09-24T06:28:25.979Z,971.3
2017-09-24T06:29:25.975Z,971.3
2017-09-24T06:30:26.068Z,971.29
2017-09-24T06:31:25.962Z,971.3
2017-09-24T06:32:25.956Z,971.34
2017-09-24T06:33:25.951Z,971.33
2017-09-24T06:34:25.947Z,971.31
2017-09-24T06:35:25.940Z,971.35
2017-09-24T06:36:25.935Z,971.37
2017-09-24T06:37:25.929Z,971.38
2017-09-24T06:38:25.922Z,971.4
2017-09-24T06:39:25.916Z,971.42
2017-09-24T06:40:25.911Z,971.42
2017-09-24T06:41:25.906Z,971.44
2017-09-24T06:42:25.999Z,971.45
2017-09-24T06:43:25.895Z,971.45
2017-09-24T06:44:25.888Z,971.48
2017-09-24T06:45:25.884Z,971.43
2017-09-24T06:46:25.877Z,971.45
2017-09-24T06:47:25.972Z,971.43
2017-09-24T06:48:25.867Z,971.44
2017-09-24T06:49:25.860Z,971.46
2017-09-24T06:50:25.856Z,971.48
2017-09-24T06:51:25.850Z,971.49
2017-09-24T06:52:25.994Z,971.49
2017-09-24T06:53:25.838Z,971.49
2017-09-24T06:54:25.831Z,971.53
2017-09-24T06:55:25.827Z,971.56
2017-09-24T06:56:25.822Z,971.58
2017-09-24T06:57:25.815Z,971.61
2017-09-24T06:58:25.809Z,971.61
2017-09-24T06:59:25.805Z,971.67
2017-09-24T07:00:25.798Z,971.62
2017-09-24T07:01:25.792Z,971.61
2017-09-24T07:02:25.788Z,971.64
2017-09-24T07:03:25.782Z,971.63
2017-09-24T07:04:25.775Z,971.62
2017-09-24T07:05:25.769Z,971.65
2017-09-24T07:06:25.764Z,971.65
2017-09-24T07:07:25.910Z,971.67
2017-09-24T07:08:25.753Z,971.66
2017-09-24T07:09:25.748Z,971.67
2017-09-24T07:10:25.743Z,971.68
2017-09-24T07:11:25.736Z,971.73
2017-09-24T07:12:25.730Z,971.7
2017-09-24T07:13:25.725Z,971.73
2017-09-24T07:14:25.719Z,971.73
2017-09-24T07:15:25.714Z,971.73
2017-09-24T07:16:25.708Z,971.72
2017-09-24T07:17:25.702Z,971.73
2017-09-24T07:18:25.697Z,971.71
2017-09-24T07:19:25.792Z,971.76
2017-09-24T07:20:25.686Z,971.73
2017-09-24T07:21:25.681Z,971.72
2017-09-24T07:22:25.675Z,971.75
2017-09-24T07:23:25.669Z,971.7
2017-09-24T07:24:25.665Z,971.72
2017-09-24T07:25:25.660Z,971.72
2017-09-24T07:26:25.652Z,971.71
2017-09-24T07:27:25.647Z,971.69
2017-09-24T07:28:25.641Z,971.71
2017-09-24T07:29:25.636Z,971.71
2017-09-24T07:30:25.630Z,971.74
2017-09-24T07:31:25.626Z,971.75
2017-09-24T07:32:25.619Z,971.77
2017-09-24T07:33:25.613Z,971.77
2017-09-24T07:34:25.607Z,971.79
2017-09-24T07:35:25.602Z,971.78
2017-09-24T07:36:25.596Z,971.77
2017-09-24T07:37:25.590Z,971.77
2017-09-24T07:38:25.586Z,971.79
2017-09-24T07:39:25.583Z,971.79
2017-09-24T07:40:25.573Z,971.77
2017-09-24T07:41:25.670Z,971.77
2017-09-24T07:42:25.564Z,971.8
2017-09-24T07:43:25.559Z,971.81
2017-09-24T07:44:25.551Z,971.79
2017-09-24T07:45:25.547Z,971.85
2017-09-24T07:46:25.542Z,971.87
2017-09-24T07:47:25.637Z,971.81
2017-09-24T07:48:25.530Z,971.83
2017-09-24T07:49:25.523Z,971.82
2017-09-24T07:50:25.619Z,971.79
2017-09-24T07:51:25.614Z,971.81
2017-09-24T07:52:25.507Z,971.83
2017-09-24T07:53:25.502Z,971.83
2017-09-24T07:54:25.496Z,971.81
2017-09-24T07:55:25.642Z,971.84
2017-09-24T07:56:25.487Z,971.85
2017-09-24T07:57:25.481Z,971.83
2017-09-24T07:58:25.484Z,971.82
2017-09-24T07:59:25.469Z,971.84
2017-09-24T08:00:25.463Z,971.82
2017-09-24T08:01:25.459Z,971.84
2017-09-24T08:02:25.452Z,971.81
2017-09-24T08:03:25.448Z,971.81
2017-09-24T08:04:25.441Z,971.8
2017-09-24T08:05:25.436Z,971.79
2017-09-24T08:06:25.530Z,971.82
2017-09-24T08:07:25.424Z,971.8
2017-09-24T08:08:25.420Z,971.82
2017-09-24T08:09:25.414Z,971.82
2017-09-24T08:10:25.407Z,971.86
2017-09-24T08:11:25.554Z,971.82
2017-09-24T08:12:25.399Z,971.88
2017-09-24T08:13:25.495Z,971.9
2017-09-24T08:14:25.386Z,971.9
2017-09-24T08:15:25.381Z,971.92
2017-09-24T08:16:25.376Z,971.9
2017-09-24T08:17:25.370Z,971.92
2017-09-24T08:18:25.364Z,971.92
2017-09-24T08:19:25.460Z,971.94
2017-09-24T08:20:25.353Z,971.94
2017-09-24T08:21:25.349Z,971.94
2017-09-24T08:22:25.343Z,971.92
2017-09-24T08:23:25.338Z,971.95
2017-09-24T08:24:25.482Z,971.96
2017-09-24T08:25:25.327Z,971.93
2017-09-24T08:26:25.322Z,971.96
2017-09-24T08:27:25.317Z,971.97
2017-09-24T08:28:25.309Z,972.01
2017-09-24T08:29:25.305Z,971.97
2017-09-24T08:30:25.299Z,971.99
2017-09-24T08:31:25.295Z,972
2017-09-24T08:32:25.288Z,971.97
2017-09-24T08:33:25.283Z,971.95
2017-09-24T08:34:25.277Z,971.96
2017-09-24T08:35:25.271Z,971.97
2017-09-24T08:36:25.266Z,971.97
2017-09-24T08:37:25.260Z,971.96
2017-09-24T08:38:25.256Z,971.96
2017-09-24T08:39:25.249Z,971.93
2017-09-24T08:40:25.245Z,971.93
2017-09-24T08:41:25.240Z,971.94
2017-09-24T08:42:25.232Z,971.95
2017-09-24T08:43:25.227Z,971.93
2017-09-24T08:44:25.222Z,971.91
2017-09-24T08:45:25.217Z,971.94
2017-09-24T08:46:25.210Z,971.93
2017-09-24T08:47:25.207Z,971.95
2017-09-24T08:48:25.201Z,971.95
2017-09-24T08:49:25.195Z,971.95
2017-09-24T08:50:25.189Z,971.94
2017-09-24T08:51:25.184Z,971.97
2017-09-24T08:52:25.180Z,972
2017-09-24T08:53:25.174Z,971.98
2017-09-24T08:54:25.168Z,971.99
2017-09-24T08:55:25.164Z,972.01
2017-09-24T08:56:25.158Z,972.01
2017-09-24T08:57:25.154Z,972.03
2017-09-24T08:58:25.148Z,972.02
2017-09-24T08:59:25.142Z,972.04
2017-09-24T09:00:25.136Z,972.04
2017-09-24T09:01:25.132Z,972.06
2017-09-24T09:02:25.127Z,972.1
2017-09-24T09:03:25.121Z,972.04
2017-09-24T09:04:25.115Z,972.07
2017-09-24T09:05:25.110Z,972.11
2017-09-24T09:06:25.105Z,972.1
2017-09-24T09:07:25.100Z,972.1
2017-09-24T09:08:25.194Z,972.09
2017-09-24T09:09:25.089Z,972.11
2017-09-24T09:10:25.082Z,972.08
2017-09-24T09:11:25.078Z,972.05
2017-09-24T09:12:25.071Z,972.07
2017-09-24T09:13:25.067Z,972.1
2017-09-24T09:14:25.062Z,972.05
2017-09-24T09:15:25.056Z,972.05
2017-09-24T09:16:25.051Z,972.07
2017-09-24T09:17:25.046Z,972.04
2017-09-24T09:18:25.041Z,972.03
2017-09-24T09:19:25.036Z,972.01
2017-09-24T09:20:25.130Z,972.01
2017-09-24T09:21:25.025Z,971.99
2017-09-24T09:22:25.020Z,971.98
2017-09-24T09:23:25.013Z,972.02
2017-09-24T09:24:25.008Z,971.98
2017-09-24T09:25:25.004Z,972
2017-09-24T09:26:24.997Z,971.99
2017-09-24T09:27:24.993Z,971.98
2017-09-24T09:28:24.988Z,972
2017-09-24T09:29:24.983Z,971.97
2017-09-24T09:30:24.978Z,971.96
2017-09-24T09:31:24.971Z,971.95
2017-09-24T09:32:24.966Z,971.97
2017-09-24T09:33:24.962Z,971.94
2017-09-24T09:34:24.956Z,971.94
2017-09-24T09:35:24.953Z,971.89
2017-09-24T09:36:24.946Z,971.92
2017-09-24T09:37:24.939Z,971.9
2017-09-24T09:38:24.936Z,971.92
2017-09-24T09:39:24.930Z,971.9
2017-09-24T09:40:24.925Z,971.92
2017-09-24T09:41:24.918Z,971.93
2017-09-24T09:42:24.914Z,971.92
2017-09-24T09:43:24.909Z,971.91
2017-09-24T09:44:24.904Z,971.91
2017-09-24T09:45:24.903Z,971.91
2017-09-24T09:46:24.893Z,971.9
2017-09-24T09:47:24.887Z,971.89
2017-09-24T09:48:24.883Z,971.87
2017-09-24T09:49:24.876Z,971.88
2017-09-24T09:50:24.872Z,971.91
2017-09-24T09:51:24.867Z,971.87
2017-09-24T09:52:24.860Z,971.95
2017-09-24T09:53:24.855Z,971.93
2017-09-24T09:54:24.850Z,971.96
2017-09-24T09:55:24.845Z,971.89
2017-09-24T09:56:24.842Z,971.89
2017-09-24T09:57:24.984Z,971.91
2017-09-24T09:58:24.829Z,971.88
2017-09-24T09:59:24.824Z,971.88
2017-09-24T10:00:24.819Z,971.85
2017-09-24T10:01:24.813Z,971.87
2017-09-24T10:02:24.810Z,971.88
2017-09-24T10:03:24.805Z,971.87
2017-09-24T10:04:24.799Z,971.88
2017-09-24T10:05:24.794Z,971.89
2017-09-24T10:06:24.789Z,971.91
2017-09-24T10:07:24.783Z,971.91
2017-09-24T10:08:24.778Z,971.92
2017-09-24T10:09:24.773Z,971.93
2017-09-24T10:10:24.918Z,971.93
2017-09-24T10:11:24.762Z,971.94
2017-09-24T10:12:24.757Z,971.92
2017-09-24T10:13:24.852Z,971.87
2017-09-24T10:14:24.747Z,971.83
2017-09-24T10:15:24.893Z,971.85
2017-09-24T10:16:24.736Z,971.8
2017-09-24T10:17:24.732Z,971.78
2017-09-24T10:18:24.726Z,971.77
2017-09-24T10:19:24.722Z,971.72
2017-09-24T10:20:24.717Z,971.72
2017-09-24T10:21:24.710Z,971.73
2017-09-24T10:22:24.706Z,971.66
2017-09-24T10:23:24.701Z,971.64
2017-09-24T10:24:24.697Z,971.67
2017-09-24T10:25:24.690Z,971.66
2017-09-24T10:26:24.686Z,971.64
2017-09-24T10:27:24.681Z,971.65
2017-09-24T10:28:24.677Z,971.64
2017-09-24T10:29:24.772Z,971.63
2017-09-24T10:30:24.667Z,971.55
2017-09-24T10:31:24.662Z,971.6
2017-09-24T10:32:24.656Z,971.61
2017-09-24T10:33:24.652Z,971.62
2017-09-24T10:34:24.646Z,971.58
2017-09-24T10:35:24.641Z,971.61
2017-09-24T10:36:24.671Z,971.62
2017-09-24T10:37:24.730Z,971.63
2017-09-24T10:38:24.627Z,971.58
2017-09-24T10:39:24.620Z,971.59
2017-09-24T10:40:24.616Z,971.57
2017-09-24T10:41:24.610Z,971.58
2017-09-24T10:42:24.606Z,971.57
2017-09-24T10:43:24.599Z,971.6
2017-09-24T10:44:24.594Z,971.61
2017-09-24T10:45:24.696Z,971.6
2017-09-24T10:46:24.586Z,971.62
2017-09-24T10:47:24.579Z,971.59
2017-09-24T10:48:24.575Z,971.62
2017-09-24T10:49:24.719Z,971.59
2017-09-24T10:50:24.564Z,971.55
2017-09-24T10:51:24.561Z,971.55
2017-09-24T10:52:24.654Z,971.52
2017-09-24T10:53:24.549Z,971.5
2017-09-24T10:54:24.543Z,971.52
2017-09-24T10:55:24.539Z,971.53
2017-09-24T10:56:24.535Z,971.48
2017-09-24T10:57:24.530Z,971.49
2017-09-24T10:58:24.524Z,971.44
2017-09-24T10:59:24.519Z,971.42
2017-09-24T11:00:24.513Z,971.43
2017-09-24T11:01:24.510Z,971.47
2017-09-24T11:02:24.605Z,971.46
2017-09-24T11:03:24.500Z,971.44
2017-09-24T11:04:24.494Z,971.45
2017-09-24T11:05:24.489Z,971.38
2017-09-24T11:06:24.484Z,971.42
2017-09-24T11:07:24.480Z,971.4
2017-09-24T11:08:24.475Z,971.36
2017-09-24T11:09:24.469Z,971.37
2017-09-24T11:10:24.464Z,971.39
2017-09-24T11:11:24.460Z,971.39
2017-09-24T11:12:24.553Z,971.38
2017-09-24T11:13:24.448Z,971.37
2017-09-24T11:14:24.444Z,971.4
2017-09-24T11:15:24.440Z,971.36
2017-09-24T11:16:24.434Z,971.4
2017-09-24T11:17:24.530Z,971.38
2017-09-24T11:18:24.423Z,971.37
2017-09-24T11:19:24.420Z,971.33
2017-09-24T11:20:24.416Z,971.35
2017-09-24T11:21:24.560Z,971.39
2017-09-24T11:22:24.405Z,971.34
2017-09-24T11:23:24.399Z,971.37
2017-09-24T11:24:24.393Z,971.36
2017-09-24T11:25:24.389Z,971.34
2017-09-24T11:26:24.385Z,971.34
2017-09-24T11:27:24.380Z,971.34
2017-09-24T11:28:24.374Z,971.28
2017-09-24T11:29:24.369Z,971.3
2017-09-24T11:30:24.364Z,971.28
2017-09-24T11:31:24.360Z,971.27
2017-09-24T11:32:24.354Z,971.29
2017-09-24T11:33:24.450Z,971.31
2017-09-24T11:34:24.346Z,971.29
2017-09-24T11:35:24.340Z,971.33
2017-09-24T11:36:24.334Z,971.28
2017-09-24T11:37:24.331Z,971.29
2017-09-24T11:38:24.325Z,971.29
2017-09-24T11:39:24.319Z,971.33
2017-09-24T11:40:24.466Z,971.31
2017-09-24T11:41:24.312Z,971.29
2017-09-24T11:42:24.306Z,971.27
2017-09-24T11:43:24.300Z,971.29
2017-09-24T11:44:24.295Z,971.29
2017-09-24T11:45:24.291Z,971.29
2017-09-24T11:46:24.288Z,971.28
2017-09-24T11:47:24.282Z,971.28
2017-09-24T11:48:24.277Z,971.29
2017-09-24T11:49:24.271Z,971.22
2017-09-24T11:50:24.266Z,971.27
2017-09-24T11:51:24.361Z,971.19
2017-09-24T11:52:24.258Z,971.18
2017-09-24T11:53:24.253Z,971.18
2017-09-24T11:54:24.247Z,971.18
2017-09-24T11:55:24.243Z,971.21
2017-09-24T11:56:24.337Z,971.15
2017-09-24T11:57:24.232Z,971.15
2017-09-24T11:58:24.228Z,971.15
2017-09-24T11:59:24.224Z,971.1
2017-09-24T12:00:24.217Z,971.09
2017-09-24T12:01:24.213Z,971.08
2017-09-24T12:02:24.209Z,971.1
2017-09-24T12:03:24.204Z,971.07
2017-09-24T12:04:24.201Z,971.09
2017-09-24T12:05:24.196Z,971.11
2017-09-24T12:06:24.191Z,971.1
2017-09-24T12:07:24.187Z,971.09
2017-09-24T12:08:24.181Z,971.05
2017-09-24T12:09:24.176Z,971.06
2017-09-24T12:10:24.173Z,971.03
2017-09-24T12:11:24.166Z,971.04
2017-09-24T12:12:24.163Z,970.98
2017-09-24T12:13:24.158Z,971.05
2017-09-24T12:14:24.152Z,970.97
2017-09-24T12:15:24.149Z,970.96
2017-09-24T12:16:24.143Z,970.92
2017-09-24T12:17:24.140Z,970.94
2017-09-24T12:18:24.134Z,970.93
2017-09-24T12:19:24.129Z,970.94
2017-09-24T12:20:24.225Z,970.92
2017-09-24T12:21:24.120Z,970.91
2017-09-24T12:22:24.114Z,970.91
2017-09-24T12:23:24.112Z,970.94
2017-09-24T12:24:24.107Z,970.96
2017-09-24T12:25:24.101Z,970.98
2017-09-24T12:26:24.097Z,970.99
2017-09-24T12:27:24.092Z,970.97
2017-09-24T12:28:24.088Z,970.95
2017-09-24T12:29:24.082Z,970.95
2017-09-24T12:30:24.078Z,970.95